sensor_id;sensor_type;location;lat;lon;timestamp;P1;durP1;ratioP1;P2;durP2;ratioP2
23782;SDS011;12071;50.850;4.446;2023-08-08T00:01:49;6.68;;;2.25;;
23782;SDS011;12071;50.850;4.446;2023-08-08T00:04:15;5.95;;;1.70;;
23782;SDS011;12071;50.850;4.446;2023-08-08T00:06:41;6.85;;;1.90;;
23782;SDS011;12071;50.850;4.446;2023-08-08T00:09:06;4.15;;;1.58;;
23782;SDS011;12071;50.850;4.446;2023-08-08T00:11:32;5.53;;;2.03;;
23782;SDS011;12071;50.850;4.446;2023-08-08T00:13:58;6.35;;;1.70;;
23782;SDS011;12071;50.850;4.446;2023-08-08T00:16:24;4.65;;;1.98;;
23782;SDS011;12071;50.850;4.446;2023-08-08T00:18:50;8.23;;;2.67;;
23782;SDS011;12071;50.850;4.446;2023-08-08T00:21:18;6.75;;;2.40;;
23782;SDS011;12071;50.850;4.446;2023-08-08T00:23:44;10.23;;;2.45;;
23782;SDS011;12071;50.850;4.446;2023-08-08T00:26:10;11.18;;;2.75;;
23782;SDS011;12071;50.850;4.446;2023-08-08T00:28:36;11.07;;;2.58;;
23782;SDS011;12071;50.850;4.446;2023-08-08T00:31:02;7.85;;;2.53;;
23782;SDS011;12071;50.850;4.446;2023-08-08T00:33:27;7.35;;;2.60;;
23782;SDS011;12071;50.850;4.446;2023-08-08T00:35:53;7.80;;;2.75;;
23782;SDS011;12071;50.850;4.446;2023-08-08T00:38:19;5.75;;;2.72;;
23782;SDS011;12071;50.850;4.446;2023-08-08T00:40:45;8.13;;;2.75;;
23782;SDS011;12071;50.850;4.446;2023-08-08T00:43:11;11.32;;;3.25;;
23782;SDS011;12071;50.850;4.446;2023-08-08T00:45:36;13.98;;;2.70;;
23782;SDS011;12071;50.850;4.446;2023-08-08T00:48:02;8.57;;;2.90;;
23782;SDS011;12071;50.850;4.446;2023-08-08T00:50:29;9.80;;;2.85;;
23782;SDS011;12071;50.850;4.446;2023-08-08T00:52:55;6.45;;;2.92;;
23782;SDS011;12071;50.850;4.446;2023-08-08T00:55:21;9.40;;;3.10;;
23782;SDS011;12071;50.850;4.446;2023-08-08T00:57:48;13.00;;;2.88;;
23782;SDS011;12071;50.850;4.446;2023-08-08T01:00:13;8.05;;;2.95;;
23782;SDS011;12071;50.850;4.446;2023-08-08T01:02:39;11.25;;;3.00;;
23782;SDS011;12071;50.850;4.446;2023-08-08T01:05:05;8.85;;;2.97;;
23782;SDS011;12071;50.850;4.446;2023-08-08T01:12:50;9.27;;;3.03;;
23782;SDS011;12071;50.850;4.446;2023-08-08T01:15:19;11.35;;;3.28;;
23782;SDS011;12071;50.850;4.446;2023-08-08T01:17:45;13.40;;;3.40;;
23782;SDS011;12071;50.850;4.446;2023-08-08T01:20:13;8.35;;;3.00;;
23782;SDS011;12071;50.850;4.446;2023-08-08T01:25:44;10.95;;;3.75;;
23782;SDS011;12071;50.850;4.446;2023-08-08T01:28:12;9.05;;;3.38;;
23782;SDS011;12071;50.850;4.446;2023-08-08T01:30:37;14.35;;;4.13;;
23782;SDS011;12071;50.850;4.446;2023-08-08T01:33:04;12.73;;;4.15;;
23782;SDS011;12071;50.850;4.446;2023-08-08T01:35:32;8.68;;;3.88;;
23782;SDS011;12071;50.850;4.446;2023-08-08T01:38:04;8.23;;;3.65;;
23782;SDS011;12071;50.850;4.446;2023-08-08T01:40:41;9.32;;;3.60;;
23782;SDS011;12071;50.850;4.446;2023-08-08T01:43:09;12.25;;;4.25;;
23782;SDS011;12071;50.850;4.446;2023-08-08T01:45:36;15.82;;;4.28;;
23782;SDS011;12071;50.850;4.446;2023-08-08T01:48:08;8.23;;;3.90;;
23782;SDS011;12071;50.850;4.446;2023-08-08T01:50:36;14.93;;;4.10;;
23782;SDS011;12071;50.850;4.446;2023-08-08T01:53:02;11.50;;;3.90;;
23782;SDS011;12071;50.850;4.446;2023-08-08T01:55:28;12.55;;;3.85;;
23782;SDS011;12071;50.850;4.446;2023-08-08T01:57:53;11.82;;;3.63;;
23782;SDS011;12071;50.850;4.446;2023-08-08T02:00:19;15.80;;;3.72;;
23782;SDS011;12071;50.850;4.446;2023-08-08T02:02:45;13.75;;;4.05;;
23782;SDS011;12071;50.850;4.446;2023-08-08T02:05:11;11.93;;;3.85;;
23782;SDS011;12071;50.850;4.446;2023-08-08T02:07:37;11.98;;;4.35;;
23782;SDS011;12071;50.850;4.446;2023-08-08T02:10:02;14.13;;;3.80;;
23782;SDS011;12071;50.850;4.446;2023-08-08T02:12:28;13.55;;;4.03;;
23782;SDS011;12071;50.850;4.446;2023-08-08T02:14:55;11.63;;;3.90;;
23782;SDS011;12071;50.850;4.446;2023-08-08T02:17:22;10.98;;;3.60;;
23782;SDS011;12071;50.850;4.446;2023-08-08T02:19:47;13.38;;;4.13;;
23782;SDS011;12071;50.850;4.446;2023-08-08T02:22:13;12.35;;;3.97;;
23782;SDS011;12071;50.850;4.446;2023-08-08T02:24:40;12.02;;;4.35;;
23782;SDS011;12071;50.850;4.446;2023-08-08T02:27:05;9.90;;;4.00;;
23782;SDS011;12071;50.850;4.446;2023-08-08T02:29:31;14.30;;;4.38;;
23782;SDS011;12071;50.850;4.446;2023-08-08T02:31:57;12.93;;;3.97;;
23782;SDS011;12071;50.850;4.446;2023-08-08T02:34:22;16.65;;;4.45;;
23782;SDS011;12071;50.850;4.446;2023-08-08T02:36:49;10.68;;;4.38;;
23782;SDS011;12071;50.850;4.446;2023-08-08T02:39:14;12.20;;;4.28;;
23782;SDS011;12071;50.850;4.446;2023-08-08T02:41:40;13.00;;;4.80;;
23782;SDS011;12071;50.850;4.446;2023-08-08T02:44:06;12.43;;;5.00;;
23782;SDS011;12071;50.850;4.446;2023-08-08T02:46:32;15.23;;;4.93;;
23782;SDS011;12071;50.850;4.446;2023-08-08T02:48:57;14.95;;;4.50;;
23782;SDS011;12071;50.850;4.446;2023-08-08T02:51:23;14.18;;;5.00;;
23782;SDS011;12071;50.850;4.446;2023-08-08T02:53:48;16.27;;;4.85;;
23782;SDS011;12071;50.850;4.446;2023-08-08T02:56:14;19.85;;;5.55;;
23782;SDS011;12071;50.850;4.446;2023-08-08T02:58:40;12.30;;;5.18;;
23782;SDS011;12071;50.850;4.446;2023-08-08T03:01:05;12.55;;;4.70;;
23782;SDS011;12071;50.850;4.446;2023-08-08T03:03:31;14.98;;;5.03;;
23782;SDS011;12071;50.850;4.446;2023-08-08T03:05:57;18.88;;;4.40;;
23782;SDS011;12071;50.850;4.446;2023-08-08T03:08:22;13.80;;;4.40;;
23782;SDS011;12071;50.850;4.446;2023-08-08T03:10:48;14.68;;;4.90;;
23782;SDS011;12071;50.850;4.446;2023-08-08T03:13:14;19.42;;;5.28;;
23782;SDS011;12071;50.850;4.446;2023-08-08T03:15:40;13.88;;;4.55;;
23782;SDS011;12071;50.850;4.446;2023-08-08T03:18:06;11.40;;;4.72;;
23782;SDS011;12071;50.850;4.446;2023-08-08T03:20:31;17.15;;;5.03;;
23782;SDS011;12071;50.850;4.446;2023-08-08T03:22:57;13.13;;;4.93;;
23782;SDS011;12071;50.850;4.446;2023-08-08T03:25:23;12.95;;;4.80;;
23782;SDS011;12071;50.850;4.446;2023-08-08T03:27:49;12.85;;;5.22;;
23782;SDS011;12071;50.850;4.446;2023-08-08T03:30:15;14.60;;;5.68;;
23782;SDS011;12071;50.850;4.446;2023-08-08T03:32:41;15.50;;;5.53;;
23782;SDS011;12071;50.850;4.446;2023-08-08T03:35:07;16.00;;;5.57;;
23782;SDS011;12071;50.850;4.446;2023-08-08T03:37:34;19.70;;;5.93;;
23782;SDS011;12071;50.850;4.446;2023-08-08T03:40:00;19.45;;;6.22;;
23782;SDS011;12071;50.850;4.446;2023-08-08T03:42:26;20.80;;;5.47;;
23782;SDS011;12071;50.850;4.446;2023-08-08T03:44:51;17.02;;;5.45;;
23782;SDS011;12071;50.850;4.446;2023-08-08T03:47:17;19.10;;;6.32;;
23782;SDS011;12071;50.850;4.446;2023-08-08T03:49:42;17.38;;;6.10;;
23782;SDS011;12071;50.850;4.446;2023-08-08T03:52:08;16.48;;;5.78;;
23782;SDS011;12071;50.850;4.446;2023-08-08T03:54:34;14.75;;;6.03;;
23782;SDS011;12071;50.850;4.446;2023-08-08T03:56:59;13.27;;;5.78;;
23782;SDS011;12071;50.850;4.446;2023-08-08T03:59:26;16.63;;;6.35;;
23782;SDS011;12071;50.850;4.446;2023-08-08T04:01:52;15.02;;;6.30;;
23782;SDS011;12071;50.850;4.446;2023-08-08T04:04:17;16.50;;;6.10;;
23782;SDS011;12071;50.850;4.446;2023-08-08T04:06:43;19.33;;;6.15;;
23782;SDS011;12071;50.850;4.446;2023-08-08T04:09:09;21.33;;;6.90;;
23782;SDS011;12071;50.850;4.446;2023-08-08T04:11:34;22.15;;;6.20;;
23782;SDS011;12071;50.850;4.446;2023-08-08T04:14:01;18.27;;;6.43;;
23782;SDS011;12071;50.850;4.446;2023-08-08T04:16:27;16.08;;;6.43;;
23782;SDS011;12071;50.850;4.446;2023-08-08T04:18:53;17.98;;;6.20;;
23782;SDS011;12071;50.850;4.446;2023-08-08T04:21:19;18.85;;;6.28;;
23782;SDS011;12071;50.850;4.446;2023-08-08T04:23:44;15.68;;;6.95;;
23782;SDS011;12071;50.850;4.446;2023-08-08T04:26:10;16.50;;;6.25;;
23782;SDS011;12071;50.850;4.446;2023-08-08T04:28:36;20.67;;;6.13;;
23782;SDS011;12071;50.850;4.446;2023-08-08T04:31:02;16.17;;;6.07;;
23782;SDS011;12071;50.850;4.446;2023-08-08T04:33:27;13.55;;;5.88;;
23782;SDS011;12071;50.850;4.446;2023-08-08T04:35:53;21.65;;;6.45;;
23782;SDS011;12071;50.850;4.446;2023-08-08T04:38:19;17.63;;;7.00;;
23782;SDS011;12071;50.850;4.446;2023-08-08T04:40:44;22.08;;;5.97;;
23782;SDS011;12071;50.850;4.446;2023-08-08T04:43:10;21.40;;;6.07;;
23782;SDS011;12071;50.850;4.446;2023-08-08T04:45:36;13.90;;;6.20;;
23782;SDS011;12071;50.850;4.446;2023-08-08T04:48:01;19.65;;;6.75;;
23782;SDS011;12071;50.850;4.446;2023-08-08T04:50:27;16.25;;;6.07;;
23782;SDS011;12071;50.850;4.446;2023-08-08T04:52:53;19.25;;;5.32;;
23782;SDS011;12071;50.850;4.446;2023-08-08T04:55:19;15.40;;;5.57;;
23782;SDS011;12071;50.850;4.446;2023-08-08T04:57:44;17.10;;;5.82;;
23782;SDS011;12071;50.850;4.446;2023-08-08T05:00:10;17.77;;;4.90;;
23782;SDS011;12071;50.850;4.446;2023-08-08T05:02:37;19.38;;;5.13;;
23782;SDS011;12071;50.850;4.446;2023-08-08T05:05:04;17.92;;;5.18;;
23782;SDS011;12071;50.850;4.446;2023-08-08T05:07:30;16.83;;;5.00;;
23782;SDS011;12071;50.850;4.446;2023-08-08T05:09:56;20.63;;;5.25;;
23782;SDS011;12071;50.850;4.446;2023-08-08T05:12:22;12.57;;;4.60;;
23782;SDS011;12071;50.850;4.446;2023-08-08T05:14:47;19.58;;;5.13;;
23782;SDS011;12071;50.850;4.446;2023-08-08T05:17:13;15.90;;;5.25;;
23782;SDS011;12071;50.850;4.446;2023-08-08T05:19:39;21.15;;;9.02;;
23782;SDS011;12071;50.850;4.446;2023-08-08T05:22:04;13.15;;;4.93;;
23782;SDS011;12071;50.850;4.446;2023-08-08T05:24:30;17.27;;;5.00;;
23782;SDS011;12071;50.850;4.446;2023-08-08T05:26:56;19.52;;;5.07;;
23782;SDS011;12071;50.850;4.446;2023-08-08T05:29:22;17.85;;;4.82;;
23782;SDS011;12071;50.850;4.446;2023-08-08T05:31:48;15.07;;;5.72;;
23782;SDS011;12071;50.850;4.446;2023-08-08T05:34:14;19.00;;;5.10;;
23782;SDS011;12071;50.850;4.446;2023-08-08T05:36:39;13.35;;;4.78;;
23782;SDS011;12071;50.850;4.446;2023-08-08T05:39:05;20.38;;;4.53;;
23782;SDS011;12071;50.850;4.446;2023-08-08T05:41:32;16.85;;;5.28;;
23782;SDS011;12071;50.850;4.446;2023-08-08T05:43:58;16.55;;;4.53;;
23782;SDS011;12071;50.850;4.446;2023-08-08T05:46:24;16.55;;;4.75;;
23782;SDS011;12071;50.850;4.446;2023-08-08T05:48:49;14.02;;;4.43;;
23782;SDS011;12071;50.850;4.446;2023-08-08T05:51:15;14.35;;;5.07;;
23782;SDS011;12071;50.850;4.446;2023-08-08T05:53:41;11.88;;;4.72;;
23782;SDS011;12071;50.850;4.446;2023-08-08T05:56:07;15.07;;;5.50;;
23782;SDS011;12071;50.850;4.446;2023-08-08T05:58:34;16.35;;;5.15;;
23782;SDS011;12071;50.850;4.446;2023-08-08T06:01:02;14.32;;;5.20;;
23782;SDS011;12071;50.850;4.446;2023-08-08T06:03:31;18.50;;;5.10;;
23782;SDS011;12071;50.850;4.446;2023-08-08T06:05:57;16.75;;;5.47;;
23782;SDS011;12071;50.850;4.446;2023-08-08T06:08:26;13.95;;;5.03;;
23782;SDS011;12071;50.850;4.446;2023-08-08T06:10:51;13.25;;;5.03;;
23782;SDS011;12071;50.850;4.446;2023-08-08T06:13:17;15.30;;;4.88;;
23782;SDS011;12071;50.850;4.446;2023-08-08T06:15:43;16.73;;;5.13;;
23782;SDS011;12071;50.850;4.446;2023-08-08T06:18:08;16.02;;;5.55;;
23782;SDS011;12071;50.850;4.446;2023-08-08T06:20:34;16.88;;;5.13;;
23782;SDS011;12071;50.850;4.446;2023-08-08T06:23:00;16.25;;;4.57;;
23782;SDS011;12071;50.850;4.446;2023-08-08T06:25:26;18.55;;;4.57;;
23782;SDS011;12071;50.850;4.446;2023-08-08T06:27:53;16.60;;;4.45;;
23782;SDS011;12071;50.850;4.446;2023-08-08T06:30:19;23.20;;;4.75;;
23782;SDS011;12071;50.850;4.446;2023-08-08T06:32:44;10.93;;;3.72;;
23782;SDS011;12071;50.850;4.446;2023-08-08T06:35:10;9.43;;;3.30;;
23782;SDS011;12071;50.850;4.446;2023-08-08T06:37:36;15.35;;;3.85;;
23782;SDS011;12071;50.850;4.446;2023-08-08T06:40:01;9.10;;;3.47;;
23782;SDS011;12071;50.850;4.446;2023-08-08T06:42:27;16.50;;;3.75;;
23782;SDS011;12071;50.850;4.446;2023-08-08T06:44:53;12.18;;;3.70;;
23782;SDS011;12071;50.850;4.446;2023-08-08T06:47:18;12.10;;;3.47;;
23782;SDS011;12071;50.850;4.446;2023-08-08T06:49:44;14.68;;;3.58;;
23782;SDS011;12071;50.850;4.446;2023-08-08T06:52:10;13.68;;;3.15;;
23782;SDS011;12071;50.850;4.446;2023-08-08T06:54:35;10.65;;;3.33;;
23782;SDS011;12071;50.850;4.446;2023-08-08T06:57:01;9.98;;;3.53;;
23782;SDS011;12071;50.850;4.446;2023-08-08T06:59:27;13.07;;;2.80;;
23782;SDS011;12071;50.850;4.446;2023-08-08T07:01:53;18.58;;;3.85;;
23782;SDS011;12071;50.850;4.446;2023-08-08T07:04:19;13.40;;;3.60;;
23782;SDS011;12071;50.850;4.446;2023-08-08T07:06:44;8.30;;;3.05;;
23782;SDS011;12071;50.850;4.446;2023-08-08T07:09:10;10.70;;;2.80;;
23782;SDS011;12071;50.850;4.446;2023-08-08T07:11:37;10.57;;;3.10;;
23782;SDS011;12071;50.850;4.446;2023-08-08T07:14:03;9.65;;;3.05;;
23782;SDS011;12071;50.850;4.446;2023-08-08T07:16:29;10.90;;;2.90;;
23782;SDS011;12071;50.850;4.446;2023-08-08T07:18:54;13.18;;;3.42;;
23782;SDS011;12071;50.850;4.446;2023-08-08T07:21:20;12.68;;;3.10;;
23782;SDS011;12071;50.850;4.446;2023-08-08T07:23:46;8.55;;;3.33;;
23782;SDS011;12071;50.850;4.446;2023-08-08T07:26:12;11.05;;;3.80;;
23782;SDS011;12071;50.850;4.446;2023-08-08T07:28:37;13.70;;;3.53;;
23782;SDS011;12071;50.850;4.446;2023-08-08T07:31:03;15.02;;;3.95;;
23782;SDS011;12071;50.850;4.446;2023-08-08T07:33:29;11.35;;;3.25;;
23782;SDS011;12071;50.850;4.446;2023-08-08T07:35:54;12.73;;;3.65;;
23782;SDS011;12071;50.850;4.446;2023-08-08T07:38:20;12.93;;;4.00;;
23782;SDS011;12071;50.850;4.446;2023-08-08T07:40:46;13.55;;;3.95;;
23782;SDS011;12071;50.850;4.446;2023-08-08T07:43:13;13.80;;;4.03;;
23782;SDS011;12071;50.850;4.446;2023-08-08T07:45:38;21.13;;;4.90;;
23782;SDS011;12071;50.850;4.446;2023-08-08T07:48:04;16.58;;;5.13;;
23782;SDS011;12071;50.850;4.446;2023-08-08T07:50:31;14.10;;;4.15;;
23782;SDS011;12071;50.850;4.446;2023-08-08T07:52:56;14.65;;;3.60;;
23782;SDS011;12071;50.850;4.446;2023-08-08T07:55:22;14.93;;;4.18;;
23782;SDS011;12071;50.850;4.446;2023-08-08T07:57:48;11.32;;;3.90;;
23782;SDS011;12071;50.850;4.446;2023-08-08T08:00:14;9.63;;;3.13;;
23782;SDS011;12071;50.850;4.446;2023-08-08T08:02:44;14.05;;;5.20;;
23782;SDS011;12071;50.850;4.446;2023-08-08T08:05:11;13.82;;;4.20;;
23782;SDS011;12071;50.850;4.446;2023-08-08T08:07:37;13.32;;;4.00;;
23782;SDS011;12071;50.850;4.446;2023-08-08T08:10:03;17.20;;;4.15;;
23782;SDS011;12071;50.850;4.446;2023-08-08T08:12:31;13.90;;;3.83;;
23782;SDS011;12071;50.850;4.446;2023-08-08T08:14:57;13.07;;;3.60;;
23782;SDS011;12071;50.850;4.446;2023-08-08T08:17:23;10.25;;;3.65;;
23782;SDS011;12071;50.850;4.446;2023-08-08T08:19:50;12.88;;;4.07;;
23782;SDS011;12071;50.850;4.446;2023-08-08T08:22:16;16.42;;;3.50;;
23782;SDS011;12071;50.850;4.446;2023-08-08T08:24:42;9.00;;;3.03;;
23782;SDS011;12071;50.850;4.446;2023-08-08T09:03:22;10.35;;;3.33;;
23782;SDS011;12071;50.850;4.446;2023-08-08T09:05:47;14.30;;;2.90;;
23782;SDS011;12071;50.850;4.446;2023-08-08T09:08:13;12.40;;;3.28;;
23782;SDS011;12071;50.850;4.446;2023-08-08T09:10:40;8.65;;;2.42;;
23782;SDS011;12071;50.850;4.446;2023-08-08T09:13:05;10.43;;;3.40;;
23782;SDS011;12071;50.850;4.446;2023-08-08T09:15:32;9.85;;;3.55;;
23782;SDS011;12071;50.850;4.446;2023-08-08T09:17:58;10.63;;;2.63;;
23782;SDS011;12071;50.850;4.446;2023-08-08T09:20:26;7.85;;;2.60;;
23782;SDS011;12071;50.850;4.446;2023-08-08T09:22:56;11.38;;;2.55;;
23782;SDS011;12071;50.850;4.446;2023-08-08T09:25:22;8.93;;;2.95;;
23782;SDS011;12071;50.850;4.446;2023-08-08T09:27:51;12.05;;;3.00;;
23782;SDS011;12071;50.850;4.446;2023-08-08T09:30:18;10.95;;;2.55;;
23782;SDS011;12071;50.850;4.446;2023-08-08T09:32:45;6.35;;;2.60;;
23782;SDS011;12071;50.850;4.446;2023-08-08T09:35:10;6.85;;;2.20;;
23782;SDS011;12071;50.850;4.446;2023-08-08T09:37:36;7.00;;;2.30;;
23782;SDS011;12071;50.850;4.446;2023-08-08T09:40:05;9.70;;;2.60;;
23782;SDS011;12071;50.850;4.446;2023-08-08T09:42:33;12.88;;;2.88;;
23782;SDS011;12071;50.850;4.446;2023-08-08T09:45:00;9.65;;;2.47;;
23782;SDS011;12071;50.850;4.446;2023-08-08T09:47:26;6.93;;;2.65;;
23782;SDS011;12071;50.850;4.446;2023-08-08T09:49:59;10.40;;;2.67;;
23782;SDS011;12071;50.850;4.446;2023-08-08T09:52:27;7.40;;;2.50;;
23782;SDS011;12071;50.850;4.446;2023-08-08T09:54:54;7.35;;;1.88;;
23782;SDS011;12071;50.850;4.446;2023-08-08T09:57:21;7.53;;;2.15;;
23782;SDS011;12071;50.850;4.446;2023-08-08T09:59:47;10.15;;;2.20;;
23782;SDS011;12071;50.850;4.446;2023-08-08T10:02:14;7.18;;;2.10;;
23782;SDS011;12071;50.850;4.446;2023-08-08T10:04:49;8.70;;;1.90;;
23782;SDS011;12071;50.850;4.446;2023-08-08T10:07:15;6.68;;;1.80;;
23782;SDS011;12071;50.850;4.446;2023-08-08T10:09:41;7.38;;;1.80;;
23782;SDS011;12071;50.850;4.446;2023-08-08T10:12:07;8.88;;;2.40;;
23782;SDS011;12071;50.850;4.446;2023-08-08T10:14:36;7.55;;;1.83;;
23782;SDS011;12071;50.850;4.446;2023-08-08T10:17:03;4.65;;;1.65;;
23782;SDS011;12071;50.850;4.446;2023-08-08T10:19:30;6.15;;;1.83;;
23782;SDS011;12071;50.850;4.446;2023-08-08T10:21:58;7.45;;;1.75;;
23782;SDS011;12071;50.850;4.446;2023-08-08T10:24:25;10.55;;;2.22;;
23782;SDS011;12071;50.850;4.446;2023-08-08T10:26:54;7.65;;;1.67;;
23782;SDS011;12071;50.850;4.446;2023-08-08T10:31:53;7.72;;;2.00;;
23782;SDS011;12071;50.850;4.446;2023-08-08T10:34:26;6.15;;;1.70;;
23782;SDS011;12071;50.850;4.446;2023-08-08T10:37:16;6.70;;;1.73;;
23782;SDS011;12071;50.850;4.446;2023-08-08T10:40:00;6.82;;;2.08;;
23782;SDS011;12071;50.850;4.446;2023-08-08T10:42:32;4.70;;;1.48;;
23782;SDS011;12071;50.850;4.446;2023-08-08T10:45:08;5.30;;;1.90;;
23782;SDS011;12071;50.850;4.446;2023-08-08T10:47:37;5.10;;;1.60;;
23782;SDS011;12071;50.850;4.446;2023-08-08T10:50:10;6.15;;;2.03;;
23782;SDS011;12071;50.850;4.446;2023-08-08T10:57:52;5.65;;;1.77;;
23782;SDS011;12071;50.850;4.446;2023-08-08T11:00:19;6.93;;;2.28;;
23782;SDS011;12071;50.850;4.446;2023-08-08T11:02:47;7.53;;;1.85;;
23782;SDS011;12071;50.850;4.446;2023-08-08T11:05:14;5.00;;;1.40;;
23782;SDS011;12071;50.850;4.446;2023-08-08T11:07:40;4.57;;;1.35;;
23782;SDS011;12071;50.850;4.446;2023-08-08T11:10:07;5.65;;;2.13;;
23782;SDS011;12071;50.850;4.446;2023-08-08T11:12:35;4.93;;;1.50;;
23782;SDS011;12071;50.850;4.446;2023-08-08T11:15:01;3.83;;;1.48;;
23782;SDS011;12071;50.850;4.446;2023-08-08T11:17:27;7.72;;;2.00;;
23782;SDS011;12071;50.850;4.446;2023-08-08T11:19:53;3.95;;;1.33;;
23782;SDS011;12071;50.850;4.446;2023-08-08T11:22:20;4.03;;;1.92;;
23782;SDS011;12071;50.850;4.446;2023-08-08T11:24:48;3.33;;;1.60;;
23782;SDS011;12071;50.850;4.446;2023-08-08T11:27:15;3.85;;;1.40;;
23782;SDS011;12071;50.850;4.446;2023-08-08T11:29:40;7.22;;;1.50;;
23782;SDS011;12071;50.850;4.446;2023-08-08T11:32:13;5.78;;;1.50;;
23782;SDS011;12071;50.850;4.446;2023-08-08T11:34:39;4.70;;;1.63;;
23782;SDS011;12071;50.850;4.446;2023-08-08T11:37:05;3.88;;;1.58;;
23782;SDS011;12071;50.850;4.446;2023-08-08T11:39:31;2.85;;;1.23;;
23782;SDS011;12071;50.850;4.446;2023-08-08T11:41:57;1.67;;;1.00;;
23782;SDS011;12071;50.850;4.446;2023-08-08T11:44:23;4.00;;;1.17;;
23782;SDS011;12071;50.850;4.446;2023-08-08T11:46:49;1.55;;;0.80;;
23782;SDS011;12071;50.850;4.446;2023-08-08T11:49:15;1.38;;;0.75;;
23782;SDS011;12071;50.850;4.446;2023-08-08T11:51:44;2.63;;;1.00;;
23782;SDS011;12071;50.850;4.446;2023-08-08T11:54:11;3.55;;;1.13;;
23782;SDS011;12071;50.850;4.446;2023-08-08T11:56:38;3.17;;;1.10;;
23782;SDS011;12071;50.850;4.446;2023-08-08T11:59:04;5.82;;;1.15;;
23782;SDS011;12071;50.850;4.446;2023-08-08T12:01:33;4.03;;;1.13;;
23782;SDS011;12071;50.850;4.446;2023-08-08T12:04:07;2.58;;;1.17;;
23782;SDS011;12071;50.850;4.446;2023-08-08T12:06:36;3.72;;;1.25;;
23782;SDS011;12071;50.850;4.446;2023-08-08T12:09:05;6.40;;;1.40;;
23782;SDS011;12071;50.850;4.446;2023-08-08T12:11:35;2.67;;;1.25;;
23782;SDS011;12071;50.850;4.446;2023-08-08T12:14:06;5.57;;;1.60;;
23782;SDS011;12071;50.850;4.446;2023-08-08T12:16:33;4.05;;;1.30;;
23782;SDS011;12071;50.850;4.446;2023-08-08T12:19:02;3.63;;;1.30;;
23782;SDS011;12071;50.850;4.446;2023-08-08T12:21:31;6.07;;;1.40;;
23782;SDS011;12071;50.850;4.446;2023-08-08T12:23:58;5.35;;;1.40;;
23782;SDS011;12071;50.850;4.446;2023-08-08T12:26:24;3.17;;;1.45;;
23782;SDS011;12071;50.850;4.446;2023-08-08T12:28:49;3.03;;;1.20;;
23782;SDS011;12071;50.850;4.446;2023-08-08T12:31:18;5.40;;;1.35;;
23782;SDS011;12071;50.850;4.446;2023-08-08T12:33:43;3.53;;;1.25;;
23782;SDS011;12071;50.850;4.446;2023-08-08T12:36:12;4.35;;;1.27;;
23782;SDS011;12071;50.850;4.446;2023-08-08T12:38:37;6.20;;;1.50;;
23782;SDS011;12071;50.850;4.446;2023-08-08T12:41:03;4.30;;;1.10;;
23782;SDS011;12071;50.850;4.446;2023-08-08T12:43:30;2.97;;;1.42;;
23782;SDS011;12071;50.850;4.446;2023-08-08T12:45:56;1.85;;;1.00;;
23782;SDS011;12071;50.850;4.446;2023-08-08T12:48:22;3.40;;;1.17;;
23782;SDS011;12071;50.850;4.446;2023-08-08T12:50:47;5.65;;;1.35;;
23782;SDS011;12071;50.850;4.446;2023-08-08T12:53:13;4.05;;;1.13;;
23782;SDS011;12071;50.850;4.446;2023-08-08T12:55:39;3.88;;;1.20;;
23782;SDS011;12071;50.850;4.446;2023-08-08T12:58:04;3.17;;;1.63;;
23782;SDS011;12071;50.850;4.446;2023-08-08T13:00:30;2.85;;;1.30;;
23782;SDS011;12071;50.850;4.446;2023-08-08T13:02:56;4.28;;;1.70;;
23782;SDS011;12071;50.850;4.446;2023-08-08T13:05:22;2.72;;;1.42;;
23782;SDS011;12071;50.850;4.446;2023-08-08T13:07:48;5.40;;;1.45;;
23782;SDS011;12071;50.850;4.446;2023-08-08T13:10:14;4.03;;;1.25;;
23782;SDS011;12071;50.850;4.446;2023-08-08T13:12:39;2.55;;;1.40;;
23782;SDS011;12071;50.850;4.446;2023-08-08T13:15:05;2.13;;;1.27;;
23782;SDS011;12071;50.850;4.446;2023-08-08T13:17:33;3.35;;;1.20;;
23782;SDS011;12071;50.850;4.446;2023-08-08T13:20:00;2.63;;;1.10;;
23782;SDS011;12071;50.850;4.446;2023-08-08T13:22:26;5.75;;;1.20;;
23782;SDS011;12071;50.850;4.446;2023-08-08T13:24:52;3.67;;;1.02;;
23782;SDS011;12071;50.850;4.446;2023-08-08T13:27:18;1.98;;;1.13;;
23782;SDS011;12071;50.850;4.446;2023-08-08T13:29:43;1.95;;;1.10;;
23782;SDS011;12071;50.850;4.446;2023-08-08T13:32:09;3.85;;;1.20;;
23782;SDS011;12071;50.850;4.446;2023-08-08T13:34:34;2.83;;;1.35;;
23782;SDS011;12071;50.850;4.446;2023-08-08T13:37:00;4.47;;;1.48;;
23782;SDS011;12071;50.850;4.446;2023-08-08T13:39:26;4.93;;;1.40;;
23782;SDS011;12071;50.850;4.446;2023-08-08T13:41:52;2.40;;;1.20;;
23782;SDS011;12071;50.850;4.446;2023-08-08T13:44:17;3.83;;;1.40;;
23782;SDS011;12071;50.850;4.446;2023-08-08T13:46:43;5.63;;;1.30;;
23782;SDS011;12071;50.850;4.446;2023-08-08T13:49:09;2.83;;;1.35;;
23782;SDS011;12071;50.850;4.446;2023-08-08T13:51:35;4.47;;;1.30;;
23782;SDS011;12071;50.850;4.446;2023-08-08T13:54:01;3.80;;;1.27;;
23782;SDS011;12071;50.850;4.446;2023-08-08T13:56:26;4.82;;;1.10;;
23782;SDS011;12071;50.850;4.446;2023-08-08T13:58:52;5.00;;;1.50;;
23782;SDS011;12071;50.850;4.446;2023-08-08T14:01:18;3.13;;;1.30;;
23782;SDS011;12071;50.850;4.446;2023-08-08T14:03:43;2.35;;;1.25;;
23782;SDS011;12071;50.850;4.446;2023-08-08T14:06:09;2.92;;;1.10;;
23782;SDS011;12071;50.850;4.446;2023-08-08T14:08:35;3.08;;;1.20;;
23782;SDS011;12071;50.850;4.446;2023-08-08T14:11:01;4.45;;;1.10;;
23782;SDS011;12071;50.850;4.446;2023-08-08T14:13:27;2.55;;;0.98;;
23782;SDS011;12071;50.850;4.446;2023-08-08T14:15:53;2.15;;;1.00;;
23782;SDS011;12071;50.850;4.446;2023-08-08T14:18:19;1.83;;;1.00;;
23782;SDS011;12071;50.850;4.446;2023-08-08T14:20:45;4.97;;;1.23;;
23782;SDS011;12071;50.850;4.446;2023-08-08T14:23:10;2.80;;;0.90;;
23782;SDS011;12071;50.850;4.446;2023-08-08T14:25:36;2.60;;;1.10;;
23782;SDS011;12071;50.850;4.446;2023-08-08T14:28:02;1.67;;;1.10;;
23782;SDS011;12071;50.850;4.446;2023-08-08T14:30:29;5.53;;;1.45;;
23782;SDS011;12071;50.850;4.446;2023-08-08T14:32:55;1.98;;;1.05;;
23782;SDS011;12071;50.850;4.446;2023-08-08T14:35:21;3.03;;;1.20;;
23782;SDS011;12071;50.850;4.446;2023-08-08T14:37:47;2.10;;;1.00;;
23782;SDS011;12071;50.850;4.446;2023-08-08T14:40:13;2.42;;;0.90;;
23782;SDS011;12071;50.850;4.446;2023-08-08T14:42:38;2.58;;;1.13;;
23782;SDS011;12071;50.850;4.446;2023-08-08T14:45:04;2.33;;;1.20;;
23782;SDS011;12071;50.850;4.446;2023-08-08T14:47:30;1.42;;;0.80;;
23782;SDS011;12071;50.850;4.446;2023-08-08T14:49:56;3.00;;;1.10;;
23782;SDS011;12071;50.850;4.446;2023-08-08T14:52:22;2.85;;;1.30;;
23782;SDS011;12071;50.850;4.446;2023-08-08T14:54:48;2.05;;;1.00;;
23782;SDS011;12071;50.850;4.446;2023-08-08T14:57:14;1.85;;;0.98;;
23782;SDS011;12071;50.850;4.446;2023-08-08T14:59:40;1.92;;;1.02;;
23782;SDS011;12071;50.850;4.446;2023-08-08T15:02:06;1.25;;;0.90;;
23782;SDS011;12071;50.850;4.446;2023-08-08T15:04:32;2.63;;;1.00;;
23782;SDS011;12071;50.850;4.446;2023-08-08T15:07:00;3.22;;;1.08;;
23782;SDS011;12071;50.850;4.446;2023-08-08T15:09:26;2.95;;;1.15;;
23782;SDS011;12071;50.850;4.446;2023-08-08T15:11:53;3.25;;;0.93;;
23782;SDS011;12071;50.850;4.446;2023-08-08T15:14:18;2.72;;;0.93;;
23782;SDS011;12071;50.850;4.446;2023-08-08T15:16:51;2.35;;;1.13;;
23782;SDS011;12071;50.850;4.446;2023-08-08T15:19:18;4.80;;;1.23;;
23782;SDS011;12071;50.850;4.446;2023-08-08T15:21:44;3.22;;;0.93;;
23782;SDS011;12071;50.850;4.446;2023-08-08T15:24:10;1.73;;;0.93;;
23782;SDS011;12071;50.850;4.446;2023-08-08T15:26:37;1.48;;;0.98;;
23782;SDS011;12071;50.850;4.446;2023-08-08T15:29:03;3.60;;;0.80;;